createdAt,value
2019-02-02T00:01:53.577Z,4.10
2019-02-02T00:04:23.784Z,4.10
2019-02-02T00:06:54.784Z,4.10
2019-02-02T00:09:24.985Z,4.10
2019-02-02T00:11:55.584Z,4.10
2019-02-02T00:14:25.787Z,4.10
2019-02-02T00:16:56.549Z,4.00
2019-02-02T00:19:26.808Z,4.00
2019-02-02T00:21:57.654Z,4.00
2019-02-02T00:24:27.855Z,4.00
2019-02-02T00:26:58.420Z,3.90
2019-02-02T00:29:28.617Z,3.90
2019-02-02T00:31:58.863Z,3.90
2019-02-02T00:34:29.444Z,3.90
2019-02-02T00:36:59.780Z,3.90
2019-02-02T00:39:30.008Z,3.80
2019-02-02T00:42:00.660Z,3.80
2019-02-02T00:44:30.817Z,3.80
2019-02-02T00:47:01.084Z,3.80
2019-02-02T00:49:31.655Z,3.80
2019-02-02T00:52:02.295Z,3.70
2019-02-02T00:54:32.589Z,3.70
2019-02-02T00:57:02.849Z,3.70
2019-02-02T00:59:33.152Z,3.70
2019-02-02T01:02:03.391Z,3.70
2019-02-02T01:04:33.894Z,3.60
2019-02-02T01:07:05.519Z,3.60
2019-02-02T01:09:35.709Z,3.60
2019-02-02T01:12:06.037Z,3.60
2019-02-02T01:14:36.231Z,3.60
2019-02-02T01:17:06.760Z,3.60
2019-02-02T01:19:38.051Z,3.60
2019-02-02T01:22:08.719Z,3.60
2019-02-02T01:24:38.953Z,3.60
2019-02-02T01:27:09.863Z,3.60
2019-02-02T01:29:40.005Z,3.60
2019-02-02T01:32:10.651Z,3.60
2019-02-02T01:34:40.780Z,3.60
2019-02-02T01:37:11.441Z,3.60
2019-02-02T01:39:41.703Z,3.60
2019-02-02T01:42:11.956Z,3.50
2019-02-02T01:44:42.228Z,3.50
2019-02-02T01:47:12.495Z,3.50
2019-02-02T01:49:42.730Z,3.50
2019-02-02T01:52:13.351Z,3.50
2019-02-02T01:54:43.860Z,3.50
2019-02-02T01:57:14.113Z,3.50
2019-02-02T01:59:44.349Z,3.50
2019-02-02T02:02:15.076Z,3.40
2019-02-02T02:04:46.001Z,3.40
2019-02-02T02:07:16.613Z,3.40
2019-02-02T02:09:47.245Z,3.40
2019-02-02T02:12:17.451Z,3.40
2019-02-02T02:14:48.073Z,3.40
2019-02-02T02:17:18.738Z,3.40
2019-02-02T02:19:49.281Z,3.30
2019-02-02T02:22:19.547Z,3.30
2019-02-02T02:24:49.770Z,3.40
2019-02-02T02:27:20.368Z,3.30
2019-02-02T02:29:50.584Z,3.30
2019-02-02T02:32:20.858Z,3.30
2019-02-02T02:34:51.108Z,3.30
2019-02-02T02:37:21.634Z,3.30
2019-02-02T02:39:51.952Z,3.30
2019-02-02T02:42:22.185Z,3.30
2019-02-02T02:44:52.370Z,3.30
2019-02-02T02:47:22.933Z,3.30
2019-02-02T02:49:53.206Z,3.30
2019-02-02T02:52:24.092Z,3.30
2019-02-02T02:54:54.288Z,3.30
2019-02-02T02:57:24.549Z,3.30
2019-02-02T02:59:55.119Z,3.30
2019-02-02T03:02:25.339Z,3.30
2019-02-02T03:04:55.720Z,3.30
2019-02-02T03:07:26.017Z,3.30
2019-02-02T03:09:56.279Z,3.30
2019-02-02T03:12:26.522Z,3.30
2019-02-02T03:14:56.794Z,3.30
2019-02-02T03:17:27.014Z,3.30
2019-02-02T03:19:57.248Z,3.30
2019-02-02T03:22:27.534Z,3.30
2019-02-02T03:24:57.726Z,3.30
2019-02-02T03:27:28.293Z,3.30
2019-02-02T03:29:58.926Z,3.30
2019-02-02T03:32:29.482Z,3.30
2019-02-02T03:35:00.029Z,3.30
2019-02-02T03:37:30.318Z,3.30
2019-02-02T03:40:00.573Z,3.30
2019-02-02T03:42:30.805Z,3.30
2019-02-02T03:45:01.341Z,3.30
2019-02-02T03:47:32.399Z,3.20
2019-02-02T03:50:02.939Z,3.30
2019-02-02T03:52:33.131Z,3.30
2019-02-02T03:55:03.710Z,3.20
2019-02-02T03:57:33.927Z,3.30
2019-02-02T04:00:05.682Z,3.30
2019-02-02T04:02:36.338Z,3.30
2019-02-02T04:05:09.004Z,3.30
2019-02-02T04:07:39.247Z,3.30
2019-02-02T04:10:10.435Z,3.30
2019-02-02T04:12:41.717Z,3.30
2019-02-02T04:15:13.941Z,3.20
2019-02-02T04:17:44.171Z,3.20
2019-02-02T04:20:16.869Z,3.30
2019-02-02T04:22:47.155Z,3.30
2019-02-02T04:25:20.134Z,3.30
2019-02-02T04:27:50.776Z,3.30
2019-02-02T04:30:23.365Z,3.30
2019-02-02T04:32:53.629Z,3.20
2019-02-02T04:35:24.046Z,3.20
2019-02-02T04:37:54.338Z,3.30
2019-02-02T04:40:24.838Z,3.30
2019-02-02T04:42:55.361Z,3.20
2019-02-02T04:45:25.541Z,3.30
2019-02-02T04:47:55.839Z,3.30
2019-02-02T04:50:26.082Z,3.30
2019-02-02T04:52:56.376Z,3.30
2019-02-02T04:55:26.594Z,3.30
2019-02-02T04:57:56.904Z,3.30
2019-02-02T05:00:28.713Z,3.30
2019-02-02T05:02:58.946Z,3.20
2019-02-02T05:05:30.506Z,3.30
2019-02-02T05:08:01.034Z,3.30
2019-02-02T05:10:31.244Z,3.30
2019-02-02T05:13:01.560Z,3.30
2019-02-02T05:15:32.326Z,3.30
2019-02-02T05:18:02.632Z,3.30
2019-02-02T05:20:32.981Z,3.30
2019-02-02T05:23:03.568Z,3.30
2019-02-02T05:25:34.066Z,3.30
2019-02-02T05:28:04.366Z,3.30
2019-02-02T05:30:34.686Z,3.30
2019-02-02T05:33:05.352Z,3.30
2019-02-02T05:35:35.961Z,3.30
2019-02-02T05:38:06.239Z,3.30
2019-02-02T05:40:36.446Z,3.30
2019-02-02T05:43:06.674Z,3.20
2019-02-02T05:45:36.814Z,3.20
2019-02-02T05:48:08.164Z,3.20
2019-02-02T05:50:39.069Z,3.10
2019-02-02T05:53:09.906Z,3.10
2019-02-02T05:55:40.545Z,3.10
2019-02-02T05:58:11.265Z,3.10
2019-02-02T06:00:59.737Z,3.00
2019-02-02T06:03:30.029Z,3.00
2019-02-02T06:06:00.147Z,3.00
2019-02-02T06:08:30.370Z,3.00
2019-02-02T06:11:00.652Z,3.00
2019-02-02T06:13:30.833Z,3.00
2019-02-02T06:16:00.997Z,3.00
2019-02-02T06:18:31.213Z,2.90
2019-02-02T06:21:01.321Z,2.90
2019-02-02T06:23:31.625Z,3.00
2019-02-02T06:26:02.149Z,3.00
2019-02-02T06:28:32.568Z,2.90
2019-02-02T06:31:02.779Z,2.90
2019-02-02T06:33:33.319Z,3.00
2019-02-02T06:36:03.774Z,3.00
2019-02-02T06:38:34.519Z,2.90
2019-02-02T06:41:04.807Z,3.00
2019-02-02T06:43:35.393Z,2.90
2019-02-02T06:46:06.020Z,2.90
2019-02-02T06:48:36.216Z,2.90
2019-02-02T06:51:06.452Z,2.90
2019-02-02T06:53:36.735Z,2.90
2019-02-02T06:56:06.951Z,2.90
2019-02-02T06:58:37.525Z,2.90
2019-02-02T07:01:07.744Z,3.00
2019-02-02T07:03:38.311Z,3.00
2019-02-02T07:06:08.610Z,3.00
2019-02-02T07:08:38.855Z,3.00
2019-02-02T07:11:08.999Z,3.00
2019-02-02T07:13:39.197Z,3.10
2019-02-02T07:16:09.416Z,3.00
2019-02-02T07:18:39.654Z,3.00
2019-02-02T07:21:09.920Z,3.00
2019-02-02T07:23:40.495Z,3.00
2019-02-02T07:26:10.870Z,3.00
2019-02-02T07:28:40.968Z,3.00
2019-02-02T07:31:11.210Z,3.00
2019-02-02T07:33:41.422Z,3.00
2019-02-02T07:36:11.652Z,3.10
2019-02-02T07:38:41.842Z,3.00
2019-02-02T07:41:12.381Z,3.00
2019-02-02T07:43:42.576Z,3.00
2019-02-02T07:46:14.888Z,3.10
2019-02-02T07:48:45.112Z,3.10
2019-02-02T07:51:15.618Z,3.10
2019-02-02T07:53:45.856Z,3.10
2019-02-02T07:56:16.026Z,3.10
2019-02-02T07:58:46.586Z,3.10
2019-02-02T08:01:16.848Z,3.10
2019-02-02T08:03:47.104Z,3.10
2019-02-02T08:06:17.292Z,3.10
2019-02-02T08:08:47.578Z,3.10
2019-02-02T08:11:17.772Z,3.10
2019-02-02T08:13:47.978Z,3.10
2019-02-02T08:16:18.173Z,3.10
2019-02-02T08:18:48.404Z,3.10
2019-02-02T08:21:18.931Z,3.10
2019-02-02T08:23:49.125Z,3.10
2019-02-02T08:26:19.699Z,3.10
2019-02-02T08:28:50.385Z,3.10
2019-02-02T08:31:20.523Z,3.10
2019-02-02T08:33:50.779Z,3.10
2019-02-02T08:36:21.029Z,3.10
2019-02-02T08:38:51.262Z,3.20
2019-02-02T08:41:21.447Z,3.20
2019-02-02T08:43:51.978Z,3.20
2019-02-02T08:46:22.168Z,3.20
2019-02-02T08:48:52.552Z,3.20
2019-02-02T08:51:22.736Z,3.10
2019-02-02T08:53:53.155Z,3.20
2019-02-02T08:56:23.541Z,3.20
2019-02-02T08:58:53.781Z,3.20
2019-02-02T09:01:23.997Z,3.20
2019-02-02T09:03:54.300Z,3.20
2019-02-02T09:06:24.550Z,3.20
2019-02-02T09:08:54.823Z,3.20
2019-02-02T09:11:25.023Z,3.30
2019-02-02T09:13:55.222Z,3.30
2019-02-02T09:16:25.569Z,3.20
2019-02-02T09:18:56.143Z,3.30
2019-02-02T09:21:26.336Z,3.30
2019-02-02T09:23:56.527Z,3.30
2019-02-02T09:26:26.722Z,3.40
2019-02-02T09:28:57.278Z,3.40
2019-02-02T09:31:27.500Z,3.40
2019-02-02T09:33:57.828Z,3.40
2019-02-02T09:36:28.370Z,3.40
2019-02-02T09:38:58.566Z,3.40
2019-02-02T09:41:28.815Z,3.40
2019-02-02T09:43:59.049Z,3.40
2019-02-02T09:46:29.582Z,3.40
2019-02-02T09:49:01.536Z,3.40
2019-02-02T09:51:31.820Z,3.40
2019-02-02T09:54:02.346Z,3.50
2019-02-02T09:56:32.902Z,3.40
2019-02-02T09:59:03.240Z,3.50
2019-02-02T10:01:33.694Z,3.50
2019-02-02T10:04:04.094Z,3.50
2019-02-02T10:06:34.319Z,3.60
2019-02-02T10:09:07.840Z,3.60
2019-02-02T10:11:38.958Z,3.50
2019-02-02T10:14:09.181Z,3.60
2019-02-02T10:16:39.370Z,3.60
2019-02-02T10:19:09.633Z,3.50
2019-02-02T10:21:40.215Z,3.60
2019-02-02T10:24:10.502Z,3.60
2019-02-02T10:26:40.732Z,3.50
2019-02-02T10:29:11.317Z,3.60
2019-02-02T10:31:42.612Z,3.50
2019-02-02T10:34:12.850Z,3.60
2019-02-02T10:36:43.500Z,3.60
2019-02-02T10:39:13.765Z,3.60
2019-02-02T10:41:43.975Z,3.60
2019-02-02T10:44:14.479Z,3.70
2019-02-02T10:46:44.751Z,3.70
2019-02-02T10:49:16.907Z,3.70
2019-02-02T10:51:47.035Z,3.70
2019-02-02T10:54:17.351Z,3.80
2019-02-02T10:56:49.144Z,3.80
2019-02-02T10:59:19.351Z,3.80
2019-02-02T11:01:51.049Z,3.70
2019-02-02T11:04:58.435Z,3.70
2019-02-02T11:08:38.191Z,3.70
2019-02-02T11:27:16.850Z,3.80
2019-02-02T11:36:17.333Z,4.00
2019-02-02T11:38:47.570Z,3.90
2019-02-02T11:41:18.114Z,3.90
2019-02-02T11:43:48.312Z,3.90
2019-02-02T11:46:18.558Z,3.90
2019-02-02T11:48:49.049Z,3.90
2019-02-02T11:51:19.615Z,4.00
2019-02-02T11:53:49.853Z,4.00
2019-02-02T11:56:20.063Z,4.00
2019-02-02T11:58:50.590Z,4.10
2019-02-02T12:01:20.822Z,4.10
2019-02-02T12:03:52.075Z,4.00
2019-02-02T12:06:22.373Z,4.10
2019-02-02T12:08:52.504Z,4.10
2019-02-02T12:11:22.845Z,4.10
2019-02-02T12:13:53.436Z,4.10
2019-02-02T12:16:24.064Z,4.10
2019-02-02T12:18:54.622Z,4.20
2019-02-02T12:21:24.876Z,4.20
2019-02-02T12:23:55.106Z,4.30
2019-02-02T12:26:25.615Z,4.30
2019-02-02T12:28:56.283Z,4.40
2019-02-02T12:31:26.568Z,4.30
2019-02-02T12:33:56.794Z,4.40
2019-02-02T12:36:27.061Z,4.50
2019-02-02T12:38:57.688Z,4.40
2019-02-02T12:41:28.219Z,4.40
2019-02-02T12:43:58.500Z,4.30
2019-02-02T12:46:28.755Z,4.30
2019-02-02T12:48:58.968Z,4.30
2019-02-02T12:51:30.001Z,4.20
2019-02-02T12:54:00.215Z,4.20
2019-02-02T12:56:30.547Z,4.20
2019-02-02T12:59:00.796Z,4.20
2019-02-02T13:01:31.564Z,4.20
2019-02-02T13:04:05.207Z,4.20
2019-02-02T13:06:34.214Z,4.20
2019-02-02T13:09:06.611Z,4.30
2019-02-02T13:11:38.462Z,4.30
2019-02-02T13:14:09.039Z,4.30
2019-02-02T13:16:39.342Z,4.20
2019-02-02T13:19:09.706Z,4.20
2019-02-02T13:21:40.008Z,4.20
2019-02-02T13:24:10.188Z,4.20
2019-02-02T13:26:40.421Z,4.20
2019-02-02T13:29:10.641Z,4.20
2019-02-02T13:31:41.142Z,4.20
2019-02-02T13:34:11.771Z,4.20
2019-02-02T13:36:42.114Z,4.10
2019-02-02T13:39:13.220Z,4.10
2019-02-02T13:41:43.433Z,4.20
2019-02-02T13:44:13.616Z,4.20
2019-02-02T13:46:43.972Z,4.30
2019-02-02T13:49:14.113Z,4.40
2019-02-02T13:51:44.349Z,4.30
2019-02-02T13:54:14.564Z,4.30
2019-02-02T13:56:44.779Z,4.30
2019-02-02T13:59:15.032Z,4.30
2019-02-02T14:01:45.233Z,4.20
2019-02-02T14:04:15.559Z,4.20
2019-02-02T14:06:45.734Z,4.20
2019-02-02T14:09:16.290Z,4.20
2019-02-02T14:11:46.611Z,4.20
2019-02-02T14:14:16.817Z,4.20
2019-02-02T14:16:47.281Z,4.20
2019-02-02T14:19:17.516Z,4.20
2019-02-02T14:21:47.841Z,4.20
2019-02-02T14:24:18.110Z,4.30
2019-02-02T14:26:48.450Z,4.30
2019-02-02T14:29:18.669Z,4.30
2019-02-02T14:31:49.337Z,4.20
2019-02-02T14:34:19.519Z,4.20
2019-02-02T14:36:49.708Z,4.20
2019-02-02T14:39:19.951Z,4.20
2019-02-02T14:41:50.553Z,4.20
2019-02-02T14:44:20.756Z,4.20
2019-02-02T14:46:51.319Z,4.20
2019-02-02T14:49:23.025Z,4.20
2019-02-02T14:51:53.266Z,4.10
2019-02-02T14:54:24.097Z,4.10
2019-02-02T14:56:54.305Z,4.10
2019-02-02T14:59:24.932Z,4.10
2019-02-02T15:01:55.138Z,4.10
2019-02-02T15:04:25.771Z,4.10
2019-02-02T15:06:56.177Z,4.10
2019-02-02T15:09:26.360Z,4.10
2019-02-02T15:11:56.557Z,4.10
2019-02-02T15:14:27.436Z,4.10
2019-02-02T15:16:57.693Z,4.10
2019-02-02T15:19:27.905Z,4.10
2019-02-02T15:21:58.555Z,4.10
2019-02-02T15:24:28.836Z,4.10
2019-02-02T15:26:59.077Z,4.00
2019-02-02T15:29:29.585Z,4.00
2019-02-02T15:31:59.901Z,3.90
2019-02-02T15:34:30.065Z,4.00
2019-02-02T15:37:00.292Z,4.00
2019-02-02T15:39:30.531Z,3.90
2019-02-02T15:42:00.829Z,3.90
2019-02-02T15:44:31.011Z,3.90
2019-02-02T15:47:01.270Z,3.90
2019-02-02T15:49:31.524Z,3.90
2019-02-02T15:52:02.101Z,4.00
2019-02-02T15:54:32.324Z,4.00
2019-02-02T15:57:02.693Z,4.00
2019-02-02T15:59:32.847Z,3.90
2019-02-02T16:02:03.423Z,3.90
2019-02-02T16:04:33.626Z,3.90
2019-02-02T16:07:03.835Z,3.90
2019-02-02T16:09:34.012Z,3.80
2019-02-02T16:12:05.166Z,3.80
2019-02-02T16:14:35.371Z,3.80
2019-02-02T16:17:05.830Z,3.80
2019-02-02T16:19:36.020Z,3.80
2019-02-02T16:22:06.266Z,3.80
2019-02-02T16:24:36.509Z,3.80
2019-02-02T16:27:07.127Z,3.70
2019-02-02T16:29:37.320Z,3.70
2019-02-02T16:32:07.573Z,3.70
2019-02-02T16:34:38.271Z,3.70
2019-02-02T16:37:08.570Z,3.70
2019-02-02T16:39:38.821Z,3.70
2019-02-02T16:42:08.990Z,3.70
2019-02-02T16:44:39.539Z,3.70
2019-02-02T16:47:14.513Z,3.70
2019-02-02T16:49:46.997Z,3.70
2019-02-02T16:52:19.948Z,3.70
2019-02-02T16:54:52.005Z,3.80
2019-02-02T16:57:22.322Z,3.80
2019-02-02T16:59:52.931Z,3.90
2019-02-02T17:02:25.303Z,3.80
2019-02-02T17:04:55.347Z,3.80
2019-02-02T17:07:25.598Z,3.80
2019-02-02T17:09:55.806Z,3.80
2019-02-02T17:12:26.058Z,3.70
2019-02-02T17:14:56.201Z,3.70
2019-02-02T17:17:26.462Z,3.70
2019-02-02T17:19:56.715Z,3.70
2019-02-02T17:22:26.970Z,3.70
2019-02-02T17:24:57.168Z,3.60
2019-02-02T17:27:27.416Z,3.60
2019-02-02T17:29:57.982Z,3.50
2019-02-02T17:32:28.191Z,3.50
2019-02-02T17:34:58.489Z,3.50
2019-02-02T17:37:28.780Z,3.50
2019-02-02T17:39:58.990Z,3.50
2019-02-02T17:42:29.226Z,3.50
2019-02-02T17:44:59.435Z,3.50
2019-02-02T17:47:29.756Z,3.50
2019-02-02T17:49:59.969Z,3.50
2019-02-02T17:52:31.325Z,3.40
2019-02-02T17:55:01.637Z,3.50
2019-02-02T17:57:32.029Z,3.50
2019-02-02T18:00:02.312Z,3.50
2019-02-02T18:02:33.086Z,3.50
2019-02-02T18:05:03.408Z,3.50
2019-02-02T18:07:33.641Z,3.40
2019-02-02T18:10:04.272Z,3.50
2019-02-02T18:12:34.915Z,3.40
2019-02-02T18:15:06.314Z,3.50
2019-02-02T18:17:36.993Z,3.50
2019-02-02T18:20:09.663Z,3.40
2019-02-02T18:22:40.206Z,3.50
2019-02-02T18:25:11.956Z,3.50
2019-02-02T18:27:43.541Z,3.50
2019-02-02T18:30:16.419Z,3.50
2019-02-02T18:32:47.882Z,3.50
2019-02-02T18:35:18.766Z,3.50
2019-02-02T18:37:49.485Z,3.50
2019-02-02T18:40:20.226Z,3.50
2019-02-02T18:42:50.447Z,3.50
2019-02-02T18:45:22.962Z,3.50
2019-02-02T18:47:53.816Z,3.50
2019-02-02T18:50:24.043Z,3.50
2019-02-02T18:52:54.592Z,3.50
2019-02-02T18:55:44.342Z,3.60
2019-02-02T18:58:14.610Z,3.60
2019-02-02T19:00:44.804Z,3.50
2019-02-02T19:03:15.081Z,3.50
2019-02-02T19:05:45.294Z,3.50
2019-02-02T19:08:15.613Z,3.50
2019-02-02T19:10:45.915Z,3.60
2019-02-02T19:13:16.436Z,3.50
2019-02-02T19:15:46.692Z,3.60
2019-02-02T19:18:17.013Z,3.50
2019-02-02T19:20:47.538Z,3.60
2019-02-02T19:23:25.284Z,3.60
2019-02-02T19:25:50.027Z,3.60
2019-02-02T19:28:20.383Z,3.60
2019-02-02T19:30:53.457Z,3.60
2019-02-02T19:33:22.501Z,3.60
2019-02-02T19:35:52.746Z,3.60
2019-02-02T19:38:23.044Z,3.50
2019-02-02T19:40:53.483Z,3.50
2019-02-02T19:43:23.899Z,3.50
2019-02-02T19:45:54.589Z,3.60
2019-02-02T19:48:24.867Z,3.50
2019-02-02T19:50:55.300Z,3.60
2019-02-02T19:53:25.680Z,3.60
2019-02-02T19:55:55.909Z,3.60
2019-02-02T19:58:26.802Z,3.60
2019-02-02T20:00:57.068Z,3.60
2019-02-02T20:03:27.483Z,3.60
2019-02-02T20:05:57.746Z,3.60
2019-02-02T20:08:27.982Z,3.60
2019-02-02T20:10:58.244Z,3.60
2019-02-02T20:13:28.536Z,3.60
2019-02-02T20:15:58.746Z,3.60
2019-02-02T20:18:29.393Z,3.60
2019-02-02T20:20:59.664Z,3.60
2019-02-02T20:23:30.058Z,3.60
2019-02-02T20:26:00.261Z,3.70
2019-02-02T20:28:30.499Z,3.60
2019-02-02T20:31:00.791Z,3.70
2019-02-02T20:33:31.054Z,3.70
2019-02-02T20:36:01.295Z,3.70
2019-02-02T20:38:31.604Z,3.70
2019-02-02T20:41:02.338Z,3.70
2019-02-02T20:43:33.025Z,3.70
2019-02-02T20:46:03.759Z,3.70
2019-02-02T20:48:34.043Z,3.70
2019-02-02T20:51:04.497Z,3.70
2019-02-02T20:53:35.870Z,3.70
2019-02-02T20:56:06.661Z,3.70
2019-02-02T20:58:37.344Z,3.70
2019-02-02T21:01:08.196Z,3.70
2019-02-02T21:03:38.518Z,3.70
2019-02-02T21:06:08.808Z,3.70
2019-02-02T21:08:39.099Z,3.70
2019-02-02T21:11:09.326Z,3.70
2019-02-02T21:13:40.017Z,3.70
2019-02-02T21:16:11.586Z,3.70
2019-02-02T21:18:41.816Z,3.60
2019-02-02T21:21:12.379Z,3.70
2019-02-02T21:23:43.054Z,3.70
2019-02-02T21:26:13.637Z,3.70
2019-02-02T21:28:50.505Z,3.70
2019-02-02T21:31:17.114Z,3.70
2019-02-02T21:33:47.553Z,3.70
2019-02-02T21:36:17.743Z,3.70
2019-02-02T21:38:48.470Z,3.70
2019-02-02T21:41:18.748Z,3.70
2019-02-02T21:43:49.021Z,3.60
2019-02-02T21:46:19.336Z,3.60
2019-02-02T21:48:49.738Z,3.60
2019-02-02T21:51:20.319Z,3.70
2019-02-02T21:53:50.870Z,3.70
2019-02-02T21:56:21.127Z,3.70
2019-02-02T21:58:51.438Z,3.70
2019-02-02T22:01:24.247Z,3.70
2019-02-02T22:03:53.660Z,3.70
2019-02-02T22:06:23.949Z,3.70
2019-02-02T22:08:54.256Z,3.70
2019-02-02T22:11:24.765Z,3.70
2019-02-02T22:13:56.387Z,3.80
2019-02-02T22:16:26.929Z,3.80
2019-02-02T22:18:57.133Z,3.70
2019-02-02T22:21:27.366Z,3.80
2019-02-02T22:23:57.971Z,3.80
2019-02-02T22:26:28.383Z,3.80
2019-02-02T22:28:58.789Z,3.80
2019-02-02T22:31:29.052Z,3.80
2019-02-02T22:33:59.380Z,3.80
2019-02-02T22:36:30.039Z,3.80
2019-02-02T22:39:00.365Z,3.80
2019-02-02T22:41:32.280Z,3.80
2019-02-02T22:44:03.002Z,3.80
2019-02-02T22:46:33.250Z,3.80
2019-02-02T22:49:03.576Z,3.80
2019-02-02T22:51:34.241Z,3.80
2019-02-02T22:54:04.619Z,3.80
2019-02-02T22:56:34.944Z,3.80
2019-02-02T22:59:05.229Z,3.80
2019-02-02T23:01:42.583Z,3.80
2019-02-02T23:04:42.174Z,3.70
2019-02-02T23:07:23.372Z,3.70
2019-02-02T23:10:23.782Z,3.60
2019-02-02T23:13:38.267Z,3.60
2019-02-02T23:16:31.910Z,3.60
2019-02-02T23:19:02.187Z,3.60
2019-02-02T23:21:33.596Z,3.60
2019-02-02T23:24:03.856Z,3.50
2019-02-02T23:26:34.230Z,3.60
2019-02-02T23:29:04.990Z,3.50
2019-02-02T23:31:35.313Z,3.50
2019-02-02T23:34:05.678Z,3.50
2019-02-02T23:36:36.021Z,3.50
2019-02-02T23:39:10.458Z,3.50
2019-02-02T23:41:41.369Z,3.50
2019-02-02T23:44:11.631Z,3.50
2019-02-02T23:46:41.927Z,3.60
2019-02-02T23:49:12.113Z,3.60
2019-02-02T23:51:42.544Z,3.60
2019-02-02T23:54:13.372Z,3.60
2019-02-02T23:56:44.074Z,3.60
2019-02-02T23:59:14.650Z,3.60
